sensor_id;sensor_type;location;lat;lon;timestamp;P1;durP1;ratioP1;P2;durP2;ratioP2
22103;SDS011;11218;48.886;9.426;2023-06-19T00:00:47;722.35;;;428.10;;
22103;SDS011;11218;48.886;9.426;2023-06-19T00:03:20;721.10;;;425.95;;
22103;SDS011;11218;48.886;9.426;2023-06-19T00:05:49;704.75;;;408.25;;
22103;SDS011;11218;48.886;9.426;2023-06-19T00:08:21;696.10;;;387.83;;
22103;SDS011;11218;48.886;9.426;2023-06-19T00:10:58;685.95;;;382.85;;
22103;SDS011;11218;48.886;9.426;2023-06-19T00:13:26;678.25;;;381.40;;
22103;SDS011;11218;48.886;9.426;2023-06-19T00:16:00;694.53;;;393.27;;
22103;SDS011;11218;48.886;9.426;2023-06-19T00:18:39;699.50;;;400.73;;
22103;SDS011;11218;48.886;9.426;2023-06-19T00:21:07;717.40;;;408.83;;
22103;SDS011;11218;48.886;9.426;2023-06-19T00:23:38;702.35;;;403.67;;
22103;SDS011;11218;48.886;9.426;2023-06-19T00:26:06;728.22;;;425.65;;
22103;SDS011;11218;48.886;9.426;2023-06-19T00:28:43;724.17;;;426.08;;
22103;SDS011;11218;48.886;9.426;2023-06-19T00:31:12;727.58;;;417.35;;
22103;SDS011;11218;48.886;9.426;2023-06-19T00:33:44;694.55;;;382.73;;
22103;SDS011;11218;48.886;9.426;2023-06-19T00:36:14;729.70;;;433.33;;
22103;SDS011;11218;48.886;9.426;2023-06-19T00:38:58;708.95;;;414.40;;
22103;SDS011;11218;48.886;9.426;2023-06-19T00:41:31;730.83;;;433.25;;
22103;SDS011;11218;48.886;9.426;2023-06-19T00:44:01;731.10;;;429.33;;
22103;SDS011;11218;48.886;9.426;2023-06-19T00:46:29;717.85;;;404.13;;
22103;SDS011;11218;48.886;9.426;2023-06-19T00:49:01;720.25;;;415.15;;
22103;SDS011;11218;48.886;9.426;2023-06-19T00:51:32;736.97;;;433.80;;
22103;SDS011;11218;48.886;9.426;2023-06-19T00:54:09;726.67;;;409.45;;
22103;SDS011;11218;48.886;9.426;2023-06-19T00:56:42;730.58;;;430.08;;
22103;SDS011;11218;48.886;9.426;2023-06-19T00:59:15;718.70;;;411.83;;
22103;SDS011;11218;48.886;9.426;2023-06-19T01:01:47;729.47;;;421.65;;
22103;SDS011;11218;48.886;9.426;2023-06-19T01:04:19;729.38;;;432.35;;
22103;SDS011;11218;48.886;9.426;2023-06-19T01:09:41;734.60;;;436.75;;
22103;SDS011;11218;48.886;9.426;2023-06-19T01:12:18;727.08;;;420.98;;
22103;SDS011;11218;48.886;9.426;2023-06-19T01:14:56;717.20;;;397.38;;
22103;SDS011;11218;48.886;9.426;2023-06-19T01:17:27;735.92;;;417.88;;
22103;SDS011;11218;48.886;9.426;2023-06-19T01:19:59;729.53;;;414.55;;
22103;SDS011;11218;48.886;9.426;2023-06-19T01:22:39;734.65;;;436.73;;
22103;SDS011;11218;48.886;9.426;2023-06-19T01:25:16;723.30;;;429.00;;
22103;SDS011;11218;48.886;9.426;2023-06-19T01:27:46;711.90;;;405.67;;
22103;SDS011;11218;48.886;9.426;2023-06-19T01:30:16;701.03;;;385.30;;
22103;SDS011;11218;48.886;9.426;2023-06-19T01:32:47;698.28;;;398.10;;
22103;SDS011;11218;48.886;9.426;2023-06-19T01:35:24;713.78;;;407.63;;
22103;SDS011;11218;48.886;9.426;2023-06-19T01:37:58;712.13;;;414.95;;
22103;SDS011;11218;48.886;9.426;2023-06-19T01:40:30;703.38;;;383.17;;
22103;SDS011;11218;48.886;9.426;2023-06-19T01:43:01;724.45;;;418.05;;
22103;SDS011;11218;48.886;9.426;2023-06-19T01:45:31;737.75;;;420.25;;
22103;SDS011;11218;48.886;9.426;2023-06-19T01:47:59;726.40;;;416.70;;
22103;SDS011;11218;48.886;9.426;2023-06-19T01:50:30;743.72;;;413.85;;
22103;SDS011;11218;48.886;9.426;2023-06-19T01:53:02;708.00;;;401.13;;
22103;SDS011;11218;48.886;9.426;2023-06-19T01:55:33;680.80;;;359.33;;
22103;SDS011;11218;48.886;9.426;2023-06-19T01:58:07;696.95;;;377.40;;
22103;SDS011;11218;48.886;9.426;2023-06-19T02:00:43;688.35;;;361.08;;
22103;SDS011;11218;48.886;9.426;2023-06-19T02:03:12;684.20;;;370.00;;
22103;SDS011;11218;48.886;9.426;2023-06-19T02:05:45;704.65;;;382.17;;
22103;SDS011;11218;48.886;9.426;2023-06-19T02:08:20;719.47;;;386.17;;
22103;SDS011;11218;48.886;9.426;2023-06-19T02:10:50;723.70;;;399.35;;
22103;SDS011;11218;48.886;9.426;2023-06-19T02:13:18;732.35;;;403.73;;
22103;SDS011;11218;48.886;9.426;2023-06-19T02:15:46;712.15;;;386.80;;
22103;SDS011;11218;48.886;9.426;2023-06-19T02:18:17;700.03;;;385.27;;
22103;SDS011;11218;48.886;9.426;2023-06-19T02:20:46;695.95;;;366.38;;
22103;SDS011;11218;48.886;9.426;2023-06-19T02:23:21;720.30;;;399.85;;
22103;SDS011;11218;48.886;9.426;2023-06-19T02:25:51;714.03;;;389.88;;
22103;SDS011;11218;48.886;9.426;2023-06-19T02:28:22;715.80;;;398.77;;
22103;SDS011;11218;48.886;9.426;2023-06-19T02:30:56;706.05;;;381.55;;
22103;SDS011;11218;48.886;9.426;2023-06-19T02:33:25;702.78;;;375.75;;
22103;SDS011;11218;48.886;9.426;2023-06-19T02:35:54;728.47;;;411.20;;
22103;SDS011;11218;48.886;9.426;2023-06-19T02:38:33;705.63;;;379.20;;
22103;SDS011;11218;48.886;9.426;2023-06-19T02:41:02;703.78;;;369.75;;
22103;SDS011;11218;48.886;9.426;2023-06-19T02:43:30;734.30;;;400.35;;
22103;SDS011;11218;48.886;9.426;2023-06-19T02:46:02;711.17;;;393.77;;
22103;SDS011;11218;48.886;9.426;2023-06-19T02:48:30;726.25;;;386.92;;
22103;SDS011;11218;48.886;9.426;2023-06-19T02:51:01;696.42;;;366.52;;
22103;SDS011;11218;48.886;9.426;2023-06-19T02:53:29;702.20;;;380.33;;
22103;SDS011;11218;48.886;9.426;2023-06-19T02:56:00;704.00;;;388.05;;
22103;SDS011;11218;48.886;9.426;2023-06-19T02:58:30;692.03;;;373.10;;
22103;SDS011;11218;48.886;9.426;2023-06-19T03:01:00;683.08;;;366.85;;
22103;SDS011;11218;48.886;9.426;2023-06-19T03:03:35;701.38;;;368.40;;
22103;SDS011;11218;48.886;9.426;2023-06-19T03:06:07;708.22;;;383.13;;
22103;SDS011;11218;48.886;9.426;2023-06-19T03:08:41;705.67;;;379.25;;
22103;SDS011;11218;48.886;9.426;2023-06-19T03:11:16;704.60;;;379.75;;
22103;SDS011;11218;48.886;9.426;2023-06-19T03:13:50;705.17;;;374.35;;
22103;SDS011;11218;48.886;9.426;2023-06-19T03:16:25;700.47;;;376.15;;
22103;SDS011;11218;48.886;9.426;2023-06-19T03:18:53;683.67;;;356.08;;
22103;SDS011;11218;48.886;9.426;2023-06-19T03:21:26;696.65;;;365.25;;
22103;SDS011;11218;48.886;9.426;2023-06-19T03:23:57;688.13;;;362.17;;
22103;SDS011;11218;48.886;9.426;2023-06-19T03:26:29;693.15;;;363.98;;
22103;SDS011;11218;48.886;9.426;2023-06-19T03:29:02;689.80;;;363.85;;
22103;SDS011;11218;48.886;9.426;2023-06-19T03:31:35;726.80;;;386.55;;
22103;SDS011;11218;48.886;9.426;2023-06-19T03:34:08;719.03;;;403.00;;
22103;SDS011;11218;48.886;9.426;2023-06-19T03:36:38;702.78;;;371.27;;
22103;SDS011;11218;48.886;9.426;2023-06-19T03:39:06;713.35;;;390.77;;
22103;SDS011;11218;48.886;9.426;2023-06-19T03:41:38;693.00;;;373.23;;
22103;SDS011;11218;48.886;9.426;2023-06-19T03:44:06;695.05;;;360.77;;
22103;SDS011;11218;48.886;9.426;2023-06-19T03:46:37;704.05;;;382.38;;
22103;SDS011;11218;48.886;9.426;2023-06-19T03:49:12;702.92;;;375.77;;
22103;SDS011;11218;48.886;9.426;2023-06-19T03:51:46;685.92;;;359.10;;
22103;SDS011;11218;48.886;9.426;2023-06-19T03:54:15;692.50;;;370.45;;
22103;SDS011;11218;48.886;9.426;2023-06-19T03:56:51;717.42;;;392.73;;
22103;SDS011;11218;48.886;9.426;2023-06-19T03:59:22;723.40;;;397.95;;
22103;SDS011;11218;48.886;9.426;2023-06-19T04:01:50;686.38;;;352.40;;
22103;SDS011;11218;48.886;9.426;2023-06-19T04:04:24;665.50;;;349.40;;
22103;SDS011;11218;48.886;9.426;2023-06-19T04:06:54;695.38;;;363.13;;
22103;SDS011;11218;48.886;9.426;2023-06-19T04:09:25;714.72;;;392.60;;
22103;SDS011;11218;48.886;9.426;2023-06-19T04:11:55;690.22;;;359.17;;
22103;SDS011;11218;48.886;9.426;2023-06-19T04:14:28;701.53;;;367.98;;
22103;SDS011;11218;48.886;9.426;2023-06-19T04:16:56;710.83;;;378.67;;
22103;SDS011;11218;48.886;9.426;2023-06-19T04:19:28;720.10;;;373.15;;
22103;SDS011;11218;48.886;9.426;2023-06-19T04:22:02;727.33;;;390.80;;
22103;SDS011;11218;48.886;9.426;2023-06-19T04:24:32;722.67;;;382.13;;
22103;SDS011;11218;48.886;9.426;2023-06-19T04:27:02;722.35;;;393.95;;
22103;SDS011;11218;48.886;9.426;2023-06-19T04:29:43;720.88;;;384.10;;
22103;SDS011;11218;48.886;9.426;2023-06-19T04:32:14;710.30;;;374.25;;
22103;SDS011;11218;48.886;9.426;2023-06-19T04:34:44;724.28;;;379.02;;
22103;SDS011;11218;48.886;9.426;2023-06-19T04:37:15;723.53;;;388.23;;
22103;SDS011;11218;48.886;9.426;2023-06-19T04:39:45;729.17;;;387.20;;
22103;SDS011;11218;48.886;9.426;2023-06-19T04:42:15;710.53;;;367.40;;
22103;SDS011;11218;48.886;9.426;2023-06-19T04:44:47;710.70;;;370.10;;
22103;SDS011;11218;48.886;9.426;2023-06-19T04:47:16;711.38;;;362.50;;
22103;SDS011;11218;48.886;9.426;2023-06-19T04:49:48;720.15;;;378.25;;
22103;SDS011;11218;48.886;9.426;2023-06-19T04:52:16;707.45;;;358.60;;
22103;SDS011;11218;48.886;9.426;2023-06-19T04:54:55;745.65;;;395.20;;
22103;SDS011;11218;48.886;9.426;2023-06-19T04:57:24;707.20;;;362.10;;
22103;SDS011;11218;48.886;9.426;2023-06-19T04:59:58;705.05;;;359.88;;
22103;SDS011;11218;48.886;9.426;2023-06-19T05:02:30;712.75;;;375.90;;
22103;SDS011;11218;48.886;9.426;2023-06-19T05:04:59;711.38;;;371.17;;
22103;SDS011;11218;48.886;9.426;2023-06-19T05:07:31;720.72;;;378.73;;
22103;SDS011;11218;48.886;9.426;2023-06-19T05:09:59;714.45;;;369.48;;
22103;SDS011;11218;48.886;9.426;2023-06-19T05:12:31;714.20;;;368.00;;
22103;SDS011;11218;48.886;9.426;2023-06-19T05:15:00;705.47;;;355.58;;
22103;SDS011;11218;48.886;9.426;2023-06-19T05:17:28;704.75;;;367.50;;
22103;SDS011;11218;48.886;9.426;2023-06-19T05:19:57;699.58;;;356.67;;
22103;SDS011;11218;48.886;9.426;2023-06-19T05:22:25;709.00;;;369.10;;
22103;SDS011;11218;48.886;9.426;2023-06-19T05:24:53;711.42;;;380.58;;
22103;SDS011;11218;48.886;9.426;2023-06-19T05:27:21;678.40;;;334.25;;
22103;SDS011;11218;48.886;9.426;2023-06-19T05:29:51;695.42;;;354.13;;
22103;SDS011;11218;48.886;9.426;2023-06-19T05:32:19;695.70;;;356.77;;
22103;SDS011;11218;48.886;9.426;2023-06-19T05:34:48;707.95;;;368.80;;
22103;SDS011;11218;48.886;9.426;2023-06-19T05:37:16;698.70;;;362.25;;
22103;SDS011;11218;48.886;9.426;2023-06-19T05:39:45;707.10;;;374.00;;
22103;SDS011;11218;48.886;9.426;2023-06-19T05:42:13;698.08;;;366.38;;
22103;SDS011;11218;48.886;9.426;2023-06-19T05:44:41;700.53;;;357.77;;
22103;SDS011;11218;48.886;9.426;2023-06-19T05:47:11;711.70;;;374.55;;
22103;SDS011;11218;48.886;9.426;2023-06-19T05:49:39;728.05;;;408.58;;
22103;SDS011;11218;48.886;9.426;2023-06-19T05:52:07;712.78;;;386.15;;
22103;SDS011;11218;48.886;9.426;2023-06-19T05:54:36;716.65;;;389.35;;
22103;SDS011;11218;48.886;9.426;2023-06-19T05:57:04;711.58;;;396.90;;
22103;SDS011;11218;48.886;9.426;2023-06-19T05:59:33;697.67;;;366.58;;
22103;SDS011;11218;48.886;9.426;2023-06-19T06:02:01;711.72;;;387.52;;
22103;SDS011;11218;48.886;9.426;2023-06-19T06:04:31;709.58;;;387.00;;
22103;SDS011;11218;48.886;9.426;2023-06-19T06:07:03;700.72;;;385.17;;
22103;SDS011;11218;48.886;9.426;2023-06-19T06:09:32;708.67;;;389.27;;
22103;SDS011;11218;48.886;9.426;2023-06-19T06:12:00;710.53;;;387.98;;
22103;SDS011;11218;48.886;9.426;2023-06-19T06:14:28;674.40;;;357.85;;
22103;SDS011;11218;48.886;9.426;2023-06-19T06:16:57;710.53;;;380.92;;
22103;SDS011;11218;48.886;9.426;2023-06-19T06:19:26;717.13;;;400.08;;
22103;SDS011;11218;48.886;9.426;2023-06-19T06:21:58;717.20;;;390.95;;
22103;SDS011;11218;48.886;9.426;2023-06-19T06:24:26;718.80;;;378.08;;
22103;SDS011;11218;48.886;9.426;2023-06-19T06:26:54;730.38;;;408.33;;
22103;SDS011;11218;48.886;9.426;2023-06-19T06:29:22;722.97;;;391.58;;
22103;SDS011;11218;48.886;9.426;2023-06-19T06:31:51;732.83;;;398.52;;
22103;SDS011;11218;48.886;9.426;2023-06-19T06:34:19;712.65;;;384.25;;
22103;SDS011;11218;48.886;9.426;2023-06-19T06:36:48;718.95;;;384.55;;
22103;SDS011;11218;48.886;9.426;2023-06-19T06:39:33;732.53;;;399.25;;
22103;SDS011;11218;48.886;9.426;2023-06-19T06:42:01;726.88;;;395.95;;
22103;SDS011;11218;48.886;9.426;2023-06-19T06:44:29;729.33;;;404.27;;
22103;SDS011;11218;48.886;9.426;2023-06-19T06:46:58;703.88;;;378.83;;
22103;SDS011;11218;48.886;9.426;2023-06-19T06:49:27;602.88;;;292.92;;
22103;SDS011;11218;48.886;9.426;2023-06-19T06:51:55;640.47;;;316.85;;
22103;SDS011;11218;48.886;9.426;2023-06-19T06:54:24;645.92;;;314.27;;
22103;SDS011;11218;48.886;9.426;2023-06-19T06:56:54;670.53;;;331.00;;
22103;SDS011;11218;48.886;9.426;2023-06-19T06:59:24;680.85;;;344.35;;
22103;SDS011;11218;48.886;9.426;2023-06-19T07:01:54;684.65;;;344.38;;
22103;SDS011;11218;48.886;9.426;2023-06-19T07:04:23;686.15;;;353.85;;
22103;SDS011;11218;48.886;9.426;2023-06-19T07:06:51;692.55;;;356.58;;
22103;SDS011;11218;48.886;9.426;2023-06-19T07:09:19;699.20;;;360.67;;
22103;SDS011;11218;48.886;9.426;2023-06-19T07:11:48;703.83;;;362.13;;
22103;SDS011;11218;48.886;9.426;2023-06-19T07:14:20;696.78;;;366.48;;
22103;SDS011;11218;48.886;9.426;2023-06-19T07:16:49;703.90;;;366.50;;
22103;SDS011;11218;48.886;9.426;2023-06-19T07:19:17;699.33;;;374.50;;
22103;SDS011;11218;48.886;9.426;2023-06-19T07:21:46;720.50;;;388.73;;
22103;SDS011;11218;48.886;9.426;2023-06-19T07:24:14;689.53;;;366.10;;
22103;SDS011;11218;48.886;9.426;2023-06-19T07:26:42;704.45;;;380.63;;
22103;SDS011;11218;48.886;9.426;2023-06-19T07:29:11;707.55;;;384.63;;
22103;SDS011;11218;48.886;9.426;2023-06-19T07:31:40;706.25;;;390.02;;
22103;SDS011;11218;48.886;9.426;2023-06-19T07:34:09;707.70;;;388.33;;
22103;SDS011;11218;48.886;9.426;2023-06-19T07:36:38;707.55;;;394.10;;
22103;SDS011;11218;48.886;9.426;2023-06-19T07:39:06;712.58;;;411.33;;
22103;SDS011;11218;48.886;9.426;2023-06-19T07:41:34;705.47;;;403.38;;
22103;SDS011;11218;48.886;9.426;2023-06-19T07:44:03;712.75;;;413.90;;
22103;SDS011;11218;48.886;9.426;2023-06-19T07:46:31;721.97;;;428.27;;
22103;SDS011;11218;48.886;9.426;2023-06-19T07:49:01;721.90;;;423.30;;
22103;SDS011;11218;48.886;9.426;2023-06-19T07:51:29;713.30;;;411.13;;
22103;SDS011;11218;48.886;9.426;2023-06-19T07:53:58;718.35;;;420.92;;
22103;SDS011;11218;48.886;9.426;2023-06-19T07:56:26;733.40;;;434.98;;
22103;SDS011;11218;48.886;9.426;2023-06-19T07:58:55;725.03;;;427.05;;
22103;SDS011;11218;48.886;9.426;2023-06-19T08:01:23;708.28;;;419.42;;
22103;SDS011;11218;48.886;9.426;2023-06-19T08:03:51;707.40;;;421.67;;
22103;SDS011;11218;48.886;9.426;2023-06-19T08:06:21;700.63;;;405.15;;
22103;SDS011;11218;48.886;9.426;2023-06-19T08:08:49;723.72;;;432.52;;
22103;SDS011;11218;48.886;9.426;2023-06-19T08:11:18;702.22;;;404.15;;
22103;SDS011;11218;48.886;9.426;2023-06-19T08:13:47;700.90;;;407.38;;
22103;SDS011;11218;48.886;9.426;2023-06-19T08:16:16;673.85;;;373.02;;
22103;SDS011;11218;48.886;9.426;2023-06-19T08:18:45;732.17;;;434.00;;
22103;SDS011;11218;48.886;9.426;2023-06-19T08:21:14;712.40;;;428.02;;
22103;SDS011;11218;48.886;9.426;2023-06-19T08:23:44;707.92;;;411.95;;
22103;SDS011;11218;48.886;9.426;2023-06-19T08:26:12;694.35;;;396.13;;
22103;SDS011;11218;48.886;9.426;2023-06-19T08:28:40;697.55;;;411.40;;
22103;SDS011;11218;48.886;9.426;2023-06-19T08:31:09;698.80;;;417.00;;
22103;SDS011;11218;48.886;9.426;2023-06-19T08:33:37;708.28;;;416.08;;
22103;SDS011;11218;48.886;9.426;2023-06-19T08:36:06;703.88;;;411.83;;
22103;SDS011;11218;48.886;9.426;2023-06-19T08:38:34;701.97;;;423.75;;
22103;SDS011;11218;48.886;9.426;2023-06-19T08:41:03;704.15;;;421.02;;
22103;SDS011;11218;48.886;9.426;2023-06-19T08:43:31;711.75;;;424.88;;
22103;SDS011;11218;48.886;9.426;2023-06-19T08:46:05;707.35;;;428.70;;
22103;SDS011;11218;48.886;9.426;2023-06-19T08:48:37;694.17;;;407.30;;
22103;SDS011;11218;48.886;9.426;2023-06-19T08:51:07;692.05;;;420.73;;
22103;SDS011;11218;48.886;9.426;2023-06-19T08:53:36;705.03;;;427.35;;
22103;SDS011;11218;48.886;9.426;2023-06-19T08:56:13;686.47;;;408.83;;
22103;SDS011;11218;48.886;9.426;2023-06-19T08:58:41;692.47;;;421.60;;
22103;SDS011;11218;48.886;9.426;2023-06-19T09:01:10;685.35;;;408.60;;
22103;SDS011;11218;48.886;9.426;2023-06-19T09:03:39;699.25;;;419.88;;
22103;SDS011;11218;48.886;9.426;2023-06-19T09:06:08;732.13;;;457.65;;
22103;SDS011;11218;48.886;9.426;2023-06-19T09:08:37;717.20;;;447.00;;
22103;SDS011;11218;48.886;9.426;2023-06-19T09:11:05;715.05;;;448.85;;
22103;SDS011;11218;48.886;9.426;2023-06-19T09:13:37;712.80;;;451.27;;
22103;SDS011;11218;48.886;9.426;2023-06-19T09:16:06;702.42;;;434.73;;
22103;SDS011;11218;48.886;9.426;2023-06-19T09:18:43;718.33;;;458.23;;
22103;SDS011;11218;48.886;9.426;2023-06-19T09:21:15;706.78;;;438.63;;
22103;SDS011;11218;48.886;9.426;2023-06-19T09:23:45;713.25;;;437.77;;
22103;SDS011;11218;48.886;9.426;2023-06-19T09:26:14;702.42;;;435.30;;
22103;SDS011;11218;48.886;9.426;2023-06-19T09:28:45;726.25;;;476.92;;
22103;SDS011;11218;48.886;9.426;2023-06-19T09:31:16;723.20;;;460.60;;
22103;SDS011;11218;48.886;9.426;2023-06-19T09:33:44;701.53;;;432.05;;
22103;SDS011;11218;48.886;9.426;2023-06-19T09:36:13;673.25;;;394.58;;
22103;SDS011;11218;48.886;9.426;2023-06-19T09:38:42;710.83;;;444.50;;
22103;SDS011;11218;48.886;9.426;2023-06-19T09:41:10;718.03;;;446.85;;
22103;SDS011;11218;48.886;9.426;2023-06-19T09:43:41;719.33;;;437.42;;
22103;SDS011;11218;48.886;9.426;2023-06-19T09:46:12;718.90;;;464.20;;
22103;SDS011;11218;48.886;9.426;2023-06-19T09:48:43;727.67;;;469.40;;
22103;SDS011;11218;48.886;9.426;2023-06-19T09:51:15;716.42;;;458.70;;
22103;SDS011;11218;48.886;9.426;2023-06-19T09:53:47;718.28;;;452.98;;
22103;SDS011;11218;48.886;9.426;2023-06-19T09:56:17;719.10;;;454.00;;
22103;SDS011;11218;48.886;9.426;2023-06-19T09:58:49;719.22;;;450.55;;
22103;SDS011;11218;48.886;9.426;2023-06-19T10:01:20;723.10;;;466.67;;
22103;SDS011;11218;48.886;9.426;2023-06-19T10:03:50;720.00;;;468.63;;
22103;SDS011;11218;48.886;9.426;2023-06-19T10:06:30;721.72;;;476.50;;
22103;SDS011;11218;48.886;9.426;2023-06-19T10:09:05;714.30;;;461.95;;
22103;SDS011;11218;48.886;9.426;2023-06-19T10:11:47;707.50;;;445.95;;
22103;SDS011;11218;48.886;9.426;2023-06-19T10:14:18;716.42;;;475.95;;
22103;SDS011;11218;48.886;9.426;2023-06-19T10:16:48;709.50;;;455.27;;
22103;SDS011;11218;48.886;9.426;2023-06-19T10:19:17;700.45;;;447.42;;
22103;SDS011;11218;48.886;9.426;2023-06-19T10:21:48;714.22;;;463.42;;
22103;SDS011;11218;48.886;9.426;2023-06-19T10:24:22;703.20;;;452.85;;
22103;SDS011;11218;48.886;9.426;2023-06-19T10:27:01;728.72;;;477.27;;
22103;SDS011;11218;48.886;9.426;2023-06-19T10:29:37;728.63;;;484.33;;
22103;SDS011;11218;48.886;9.426;2023-06-19T10:32:11;713.17;;;460.15;;
22103;SDS011;11218;48.886;9.426;2023-06-19T10:34:39;711.63;;;471.17;;
22103;SDS011;11218;48.886;9.426;2023-06-19T10:37:07;714.45;;;454.45;;
22103;SDS011;11218;48.886;9.426;2023-06-19T10:39:47;720.90;;;480.85;;
22103;SDS011;11218;48.886;9.426;2023-06-19T10:42:15;717.67;;;470.92;;
22103;SDS011;11218;48.886;9.426;2023-06-19T10:44:43;714.28;;;464.15;;
22103;SDS011;11218;48.886;9.426;2023-06-19T10:47:13;712.75;;;456.73;;
22103;SDS011;11218;48.886;9.426;2023-06-19T10:49:42;721.70;;;472.98;;
22103;SDS011;11218;48.886;9.426;2023-06-19T10:52:10;726.63;;;483.42;;
22103;SDS011;11218;48.886;9.426;2023-06-19T10:54:39;724.20;;;473.70;;
22103;SDS011;11218;48.886;9.426;2023-06-19T10:57:07;723.95;;;474.77;;
22103;SDS011;11218;48.886;9.426;2023-06-19T10:59:36;721.50;;;464.67;;
22103;SDS011;11218;48.886;9.426;2023-06-19T11:02:06;725.50;;;479.45;;
22103;SDS011;11218;48.886;9.426;2023-06-19T11:04:38;720.95;;;468.55;;
22103;SDS011;11218;48.886;9.426;2023-06-19T11:07:07;737.28;;;497.40;;
22103;SDS011;11218;48.886;9.426;2023-06-19T11:09:35;725.13;;;497.25;;
22103;SDS011;11218;48.886;9.426;2023-06-19T11:12:04;731.95;;;495.85;;
22103;SDS011;11218;48.886;9.426;2023-06-19T11:14:35;724.80;;;491.45;;
22103;SDS011;11218;48.886;9.426;2023-06-19T11:17:06;716.75;;;477.25;;
22103;SDS011;11218;48.886;9.426;2023-06-19T11:19:35;717.20;;;477.48;;
22103;SDS011;11218;48.886;9.426;2023-06-19T11:22:06;718.80;;;484.08;;
22103;SDS011;11218;48.886;9.426;2023-06-19T11:24:34;706.15;;;465.98;;
22103;SDS011;11218;48.886;9.426;2023-06-19T11:27:03;724.45;;;481.63;;
22103;SDS011;11218;48.886;9.426;2023-06-19T11:29:31;726.72;;;495.55;;
22103;SDS011;11218;48.886;9.426;2023-06-19T11:32:05;713.88;;;475.25;;
22103;SDS011;11218;48.886;9.426;2023-06-19T11:34:35;712.25;;;468.73;;
22103;SDS011;11218;48.886;9.426;2023-06-19T11:37:12;709.60;;;465.27;;
22103;SDS011;11218;48.886;9.426;2023-06-19T11:39:41;674.47;;;430.50;;
22103;SDS011;11218;48.886;9.426;2023-06-19T11:42:11;704.63;;;457.80;;
22103;SDS011;11218;48.886;9.426;2023-06-19T11:44:52;700.85;;;454.48;;
22103;SDS011;11218;48.886;9.426;2023-06-19T11:47:21;712.20;;;470.17;;
22103;SDS011;11218;48.886;9.426;2023-06-19T11:49:50;706.60;;;464.23;;
22103;SDS011;11218;48.886;9.426;2023-06-19T11:52:20;702.20;;;458.55;;
22103;SDS011;11218;48.886;9.426;2023-06-19T11:54:48;709.47;;;480.42;;
22103;SDS011;11218;48.886;9.426;2023-06-19T11:57:16;709.33;;;470.08;;
22103;SDS011;11218;48.886;9.426;2023-06-19T11:59:44;709.88;;;478.10;;
22103;SDS011;11218;48.886;9.426;2023-06-19T12:02:13;706.40;;;469.85;;
22103;SDS011;11218;48.886;9.426;2023-06-19T12:04:41;706.33;;;464.92;;
22103;SDS011;11218;48.886;9.426;2023-06-19T12:07:10;722.83;;;478.38;;
22103;SDS011;11218;48.886;9.426;2023-06-19T12:09:40;717.85;;;484.40;;
22103;SDS011;11218;48.886;9.426;2023-06-19T12:12:09;717.25;;;482.40;;
22103;SDS011;11218;48.886;9.426;2023-06-19T12:14:38;721.80;;;498.58;;
22103;SDS011;11218;48.886;9.426;2023-06-19T12:17:06;728.40;;;502.73;;
22103;SDS011;11218;48.886;9.426;2023-06-19T12:19:35;722.10;;;486.52;;
22103;SDS011;11218;48.886;9.426;2023-06-19T12:22:04;722.47;;;501.10;;
22103;SDS011;11218;48.886;9.426;2023-06-19T12:24:32;722.60;;;505.88;;
22103;SDS011;11218;48.886;9.426;2023-06-19T12:27:02;734.10;;;514.63;;
22103;SDS011;11218;48.886;9.426;2023-06-19T12:29:30;719.88;;;510.63;;
22103;SDS011;11218;48.886;9.426;2023-06-19T12:31:59;729.08;;;521.25;;
22103;SDS011;11218;48.886;9.426;2023-06-19T12:34:29;726.60;;;518.47;;
22103;SDS011;11218;48.886;9.426;2023-06-19T12:36:57;727.35;;;517.47;;
22103;SDS011;11218;48.886;9.426;2023-06-19T12:39:26;730.47;;;541.42;;
22103;SDS011;11218;48.886;9.426;2023-06-19T12:41:54;724.58;;;525.60;;
22103;SDS011;11218;48.886;9.426;2023-06-19T12:44:23;697.70;;;496.27;;
22103;SDS011;11218;48.886;9.426;2023-06-19T12:46:52;695.88;;;494.20;;
22103;SDS011;11218;48.886;9.426;2023-06-19T12:49:20;658.00;;;427.75;;
22103;SDS011;11218;48.886;9.426;2023-06-19T12:51:48;702.50;;;474.70;;
22103;SDS011;11218;48.886;9.426;2023-06-19T12:54:18;729.20;;;529.15;;
22103;SDS011;11218;48.886;9.426;2023-06-19T12:56:47;724.15;;;506.48;;
22103;SDS011;11218;48.886;9.426;2023-06-19T12:59:17;730.13;;;515.42;;
22103;SDS011;11218;48.886;9.426;2023-06-19T13:01:47;724.22;;;512.38;;
22103;SDS011;11218;48.886;9.426;2023-06-19T13:04:15;720.47;;;487.55;;
22103;SDS011;11218;48.886;9.426;2023-06-19T13:06:43;722.70;;;509.60;;
22103;SDS011;11218;48.886;9.426;2023-06-19T13:09:11;735.13;;;512.53;;
22103;SDS011;11218;48.886;9.426;2023-06-19T13:11:40;724.60;;;508.00;;
22103;SDS011;11218;48.886;9.426;2023-06-19T13:14:08;720.88;;;495.00;;
22103;SDS011;11218;48.886;9.426;2023-06-19T13:16:36;718.78;;;500.02;;
22103;SDS011;11218;48.886;9.426;2023-06-19T13:19:09;720.95;;;490.05;;
22103;SDS011;11218;48.886;9.426;2023-06-19T13:21:37;713.75;;;500.85;;
22103;SDS011;11218;48.886;9.426;2023-06-19T13:24:05;708.25;;;489.60;;
22103;SDS011;11218;48.886;9.426;2023-06-19T13:26:34;687.95;;;467.48;;
22103;SDS011;11218;48.886;9.426;2023-06-19T13:29:02;710.33;;;501.17;;
22103;SDS011;11218;48.886;9.426;2023-06-19T13:31:30;700.50;;;485.23;;
22103;SDS011;11218;48.886;9.426;2023-06-19T13:34:00;712.38;;;493.02;;
22103;SDS011;11218;48.886;9.426;2023-06-19T13:36:31;697.35;;;477.95;;
22103;SDS011;11218;48.886;9.426;2023-06-19T13:38:59;660.38;;;426.45;;
22103;SDS011;11218;48.886;9.426;2023-06-19T13:41:29;698.33;;;478.38;;
22103;SDS011;11218;48.886;9.426;2023-06-19T13:43:59;717.90;;;488.08;;
22103;SDS011;11218;48.886;9.426;2023-06-19T13:46:27;720.88;;;503.50;;
22103;SDS011;11218;48.886;9.426;2023-06-19T13:48:58;715.47;;;490.90;;
22103;SDS011;11218;48.886;9.426;2023-06-19T13:51:27;714.08;;;491.80;;
22103;SDS011;11218;48.886;9.426;2023-06-19T13:53:57;713.75;;;488.00;;
22103;SDS011;11218;48.886;9.426;2023-06-19T13:56:25;727.08;;;504.77;;
22103;SDS011;11218;48.886;9.426;2023-06-19T13:58:53;705.35;;;487.35;;
22103;SDS011;11218;48.886;9.426;2023-06-19T14:01:21;717.40;;;495.77;;
22103;SDS011;11218;48.886;9.426;2023-06-19T14:03:52;721.88;;;508.40;;
22103;SDS011;11218;48.886;9.426;2023-06-19T14:06:20;723.20;;;512.80;;
22103;SDS011;11218;48.886;9.426;2023-06-19T14:08:48;715.25;;;497.02;;
22103;SDS011;11218;48.886;9.426;2023-06-19T14:11:18;734.00;;;523.72;;
22103;SDS011;11218;48.886;9.426;2023-06-19T14:13:46;723.30;;;517.33;;
22103;SDS011;11218;48.886;9.426;2023-06-19T14:16:14;732.25;;;518.78;;